Home   Weather   Netherlands   Groningen   Past weeks
Flag for Netherlands

Past Weather in Groningen, Netherlands — Yesterday and Last 2 Weeks

Currently: 63 °F. Passing clouds. (Weather station: Groningen Eelde Airport, Netherlands). See more current weather

Past Weather in Groningen — Graph

°F

Groningen Temperature Yesterday

Maximum temperature yesterday: 77 °F (at 1:55 pm)
Minimum temperature yesterday: 54 °F (at 3:55 am)
Average temperature yesterday: 66 °F

High & Low Weather Summary for the Past Weeks

 TemperatureHumidityPressure
High77 °F (Jul 18, 12:25 pm)100% (Jul 10, 4:25 am)30.30 "Hg (Jul 10, 4:25 am)
Low52 °F (Jul 10, 5:55 am)53% (Jul 22, 1:25 pm)29.68 "Hg (Jul 25, 2:55 am)
Average65 °F82%30.05 "Hg
* Reported Jul 10 4:25 am — Jul 25 4:25 am, Groningen. Weather by CustomWeather, © 2021

Note: Actual official high and low records may vary slightly from our data, if they occured in-between our weather recording intervals... More about our weather records

Groningen Weather History for the Previous 24 Hours

Scroll right to see more
 ConditionsComfort  
Time TempWeatherWind HumidityBarometerVisibility
4:25 am
Sun, Jul 25
64 °FHeavy rain. Partly cloudy.8 mph94%29.68 "Hg2 mi
3:55 am64 °FLight rain. Partly cloudy.5 mph100%29.68 "Hg4 mi
3:25 am64 °FPassing clouds.6 mph100%29.68 "Hg4 mi
2:55 am64 °FSprinkles. Partly cloudy.10 mph100%29.68 "Hg4 mi
2:25 am64 °FRain. Partly cloudy.7 mph100%29.71 "Hg3 mi
1:55 am64 °FRain. Partly cloudy.8 mph100%29.71 "Hg2 mi
1:25 am64 °FPassing clouds.6 mph100%29.71 "Hg3 mi
12:55 am64 °FLight rain. Passing clouds.2 mph100%29.74 "Hg2 mi
12:25 am64 °FLight rain. Passing clouds.3 mph100%29.74 "Hg3 mi
11:55 pm
Sat, Jul 24
64 °FPassing clouds.7 mph100%29.77 "Hg3 mi
11:25 pm66 °FRain. Passing clouds.5 mph94%29.77 "Hg4 mi
10:55 pm66 °FRain. Passing clouds.3 mph94%29.77 "Hg3 mi
10:25 pm66 °FThunderstorms. Passing clouds.2 mph94%29.77 "Hg3 mi
9:55 pm70 °FThunderstorms. Partly cloudy.12 mph78%29.77 "HgN/A
9:25 pm72 °FClear.7 mph69%29.74 "HgN/A
8:55 pm72 °FClear.7 mph69%29.74 "HgN/A
8:25 pm72 °FClear.7 mph69%29.74 "HgN/A
7:55 pm73 °FClear.7 mph65%29.74 "HgN/A
7:25 pm73 °FClear.8 mph69%29.77 "HgN/A
6:55 pm73 °FClear.8 mph69%29.77 "HgN/A
6:25 pm73 °FClear.8 mph69%29.77 "HgN/A
5:55 pm75 °FClear.8 mph65%29.77 "HgN/A
5:25 pm75 °FClear.10 mph65%29.80 "HgN/A
4:55 pm75 °FClear.10 mph61%29.80 "HgN/A
4:25 pm75 °FClear.10 mph65%29.80 "HgN/A
3:55 pm77 °FClear.10 mph61%29.80 "HgN/A
3:25 pm77 °FClear.10 mph57%29.80 "HgN/A
2:55 pm75 °FClear.12 mph65%29.80 "HgN/A
1:55 pm77 °FClear.10 mph61%29.80 "HgN/A
1:25 pm75 °FClear.12 mph61%29.83 "HgN/A
12:55 pm72 °FClear.12 mph65%29.83 "HgN/A
12:25 pm72 °FClear.12 mph65%29.83 "HgN/A
11:55 am72 °FClear.9 mph69%29.86 "HgN/A
11:25 am72 °FMild.12 mph69%29.86 "HgN/A
10:55 am70 °FClear.12 mph69%29.86 "HgN/A
10:25 am68 °FClear.12 mph69%29.86 "HgN/A
9:55 am66 °FClear.12 mph73%29.86 "HgN/A
9:25 am64 °FMild.13 mph78%29.86 "HgN/A
8:55 am63 °FClear.12 mph83%29.86 "HgN/A
8:25 am63 °FClear.9 mph77%29.89 "HgN/A
7:55 am61 °FClear.9 mph83%29.92 "HgN/A
7:25 am59 °FClear.10 mph88%29.92 "HgN/A
6:55 am57 °FClear.9 mph94%29.92 "HgN/A
6:25 am57 °FCool.8 mph94%29.92 "HgN/A
5:55 am55 °FCool.7 mph94%29.92 "Hg4 mi
5:25 am54 °FCool.6 mph100%29.92 "Hg6 mi
Weather by CustomWeather, © 2021

See weather overview